sensor_id;sensor_type;location;lat;lon;timestamp;P1;durP1;ratioP1;P2;durP2;ratioP2
11827;SDS011;5971;49.646;8.568;2022-08-19T00:01:41;10.77;;;5.55;;
11827;SDS011;5971;49.646;8.568;2022-08-19T00:04:43;10.75;;;6.05;;
11827;SDS011;5971;49.646;8.568;2022-08-19T00:07:47;11.95;;;6.15;;
11827;SDS011;5971;49.646;8.568;2022-08-19T00:10:49;11.80;;;5.65;;
11827;SDS011;5971;49.646;8.568;2022-08-19T00:13:50;11.95;;;6.03;;
11827;SDS011;5971;49.646;8.568;2022-08-19T00:16:52;10.98;;;6.00;;
11827;SDS011;5971;49.646;8.568;2022-08-19T00:19:55;10.43;;;6.07;;
11827;SDS011;5971;49.646;8.568;2022-08-19T00:22:56;11.57;;;6.80;;
11827;SDS011;5971;49.646;8.568;2022-08-19T00:25:58;12.32;;;6.53;;
11827;SDS011;5971;49.646;8.568;2022-08-19T00:28:59;12.32;;;6.10;;
11827;SDS011;5971;49.646;8.568;2022-08-19T00:32:02;11.02;;;5.95;;
11827;SDS011;5971;49.646;8.568;2022-08-19T00:35:04;10.68;;;6.00;;
11827;SDS011;5971;49.646;8.568;2022-08-19T00:38:06;11.27;;;6.53;;
11827;SDS011;5971;49.646;8.568;2022-08-19T00:41:07;11.45;;;6.38;;
11827;SDS011;5971;49.646;8.568;2022-08-19T00:44:12;14.18;;;7.03;;
11827;SDS011;5971;49.646;8.568;2022-08-19T00:47:14;13.27;;;6.55;;
11827;SDS011;5971;49.646;8.568;2022-08-19T00:50:16;13.25;;;6.88;;
11827;SDS011;5971;49.646;8.568;2022-08-19T00:53:20;12.90;;;6.07;;
11827;SDS011;5971;49.646;8.568;2022-08-19T00:56:22;14.98;;;7.47;;
11827;SDS011;5971;49.646;8.568;2022-08-19T00:59:24;13.43;;;6.93;;
11827;SDS011;5971;49.646;8.568;2022-08-19T01:02:46;12.95;;;6.47;;
11827;SDS011;5971;49.646;8.568;2022-08-19T01:05:48;14.82;;;7.13;;
11827;SDS011;5971;49.646;8.568;2022-08-19T01:08:50;13.27;;;7.07;;
11827;SDS011;5971;49.646;8.568;2022-08-19T01:11:52;13.25;;;7.65;;
11827;SDS011;5971;49.646;8.568;2022-08-19T01:14:53;17.02;;;7.47;;
11827;SDS011;5971;49.646;8.568;2022-08-19T01:17:56;13.13;;;7.10;;
11827;SDS011;5971;49.646;8.568;2022-08-19T01:21:02;13.23;;;7.32;;
11827;SDS011;5971;49.646;8.568;2022-08-19T01:24:06;13.90;;;7.55;;
11827;SDS011;5971;49.646;8.568;2022-08-19T01:27:08;15.73;;;7.30;;
11827;SDS011;5971;49.646;8.568;2022-08-19T01:30:13;13.15;;;8.63;;
11827;SDS011;5971;49.646;8.568;2022-08-19T01:33:15;18.10;;;8.80;;
11827;SDS011;5971;49.646;8.568;2022-08-19T01:36:24;13.73;;;7.80;;
11827;SDS011;5971;49.646;8.568;2022-08-19T01:39:27;14.07;;;7.40;;
11827;SDS011;5971;49.646;8.568;2022-08-19T01:42:29;14.85;;;7.80;;
11827;SDS011;5971;49.646;8.568;2022-08-19T01:45:33;13.93;;;7.38;;
11827;SDS011;5971;49.646;8.568;2022-08-19T01:48:37;14.98;;;7.80;;
11827;SDS011;5971;49.646;8.568;2022-08-19T01:51:38;14.38;;;7.53;;
11827;SDS011;5971;49.646;8.568;2022-08-19T01:54:40;14.07;;;7.85;;
11827;SDS011;5971;49.646;8.568;2022-08-19T01:57:42;14.10;;;7.60;;
11827;SDS011;5971;49.646;8.568;2022-08-19T02:00:45;14.63;;;7.70;;
11827;SDS011;5971;49.646;8.568;2022-08-19T02:03:46;13.68;;;7.55;;
11827;SDS011;5971;49.646;8.568;2022-08-19T02:06:48;15.65;;;7.75;;
11827;SDS011;5971;49.646;8.568;2022-08-19T02:09:49;14.25;;;7.75;;
11827;SDS011;5971;49.646;8.568;2022-08-19T02:12:50;16.15;;;8.00;;
11827;SDS011;5971;49.646;8.568;2022-08-19T02:15:52;14.07;;;7.60;;
11827;SDS011;5971;49.646;8.568;2022-08-19T02:18:53;15.50;;;8.00;;
11827;SDS011;5971;49.646;8.568;2022-08-19T02:21:55;15.00;;;7.05;;
11827;SDS011;5971;49.646;8.568;2022-08-19T02:24:57;15.23;;;7.47;;
11827;SDS011;5971;49.646;8.568;2022-08-19T02:27:58;14.05;;;7.82;;
11827;SDS011;5971;49.646;8.568;2022-08-19T02:31:00;14.07;;;7.28;;
11827;SDS011;5971;49.646;8.568;2022-08-19T02:34:03;13.48;;;7.45;;
11827;SDS011;5971;49.646;8.568;2022-08-19T02:37:04;14.55;;;7.32;;
11827;SDS011;5971;49.646;8.568;2022-08-19T02:40:06;14.45;;;7.20;;
11827;SDS011;5971;49.646;8.568;2022-08-19T02:43:12;13.65;;;7.10;;
11827;SDS011;5971;49.646;8.568;2022-08-19T02:46:18;14.30;;;7.55;;
11827;SDS011;5971;49.646;8.568;2022-08-19T02:49:22;14.98;;;7.63;;
11827;SDS011;5971;49.646;8.568;2022-08-19T02:52:23;13.82;;;7.30;;
11827;SDS011;5971;49.646;8.568;2022-08-19T02:55:26;13.65;;;7.13;;
11827;SDS011;5971;49.646;8.568;2022-08-19T02:58:27;13.43;;;7.30;;
11827;SDS011;5971;49.646;8.568;2022-08-19T03:01:30;15.05;;;7.70;;
11827;SDS011;5971;49.646;8.568;2022-08-19T03:04:32;14.10;;;7.78;;
11827;SDS011;5971;49.646;8.568;2022-08-19T03:07:33;16.52;;;8.13;;
11827;SDS011;5971;49.646;8.568;2022-08-19T03:10:39;13.93;;;7.25;;
11827;SDS011;5971;49.646;8.568;2022-08-19T03:13:40;15.93;;;7.55;;
11827;SDS011;5971;49.646;8.568;2022-08-19T03:16:46;14.00;;;7.32;;
11827;SDS011;5971;49.646;8.568;2022-08-19T03:19:48;13.65;;;7.28;;
11827;SDS011;5971;49.646;8.568;2022-08-19T03:22:49;15.32;;;7.57;;
11827;SDS011;5971;49.646;8.568;2022-08-19T03:25:51;14.80;;;6.85;;
11827;SDS011;5971;49.646;8.568;2022-08-19T03:29:13;15.45;;;8.13;;
11827;SDS011;5971;49.646;8.568;2022-08-19T03:32:14;14.75;;;7.22;;
11827;SDS011;5971;49.646;8.568;2022-08-19T03:35:33;14.60;;;7.63;;
11827;SDS011;5971;49.646;8.568;2022-08-19T03:38:38;14.73;;;7.75;;
11827;SDS011;5971;49.646;8.568;2022-08-19T03:41:41;16.60;;;8.73;;
11827;SDS011;5971;49.646;8.568;2022-08-19T03:44:46;16.73;;;8.45;;
11827;SDS011;5971;49.646;8.568;2022-08-19T03:47:47;14.63;;;8.45;;
11827;SDS011;5971;49.646;8.568;2022-08-19T03:50:49;15.45;;;8.05;;
11827;SDS011;5971;49.646;8.568;2022-08-19T03:53:51;16.77;;;7.78;;
11827;SDS011;5971;49.646;8.568;2022-08-19T03:56:53;15.85;;;8.32;;
11827;SDS011;5971;49.646;8.568;2022-08-19T03:59:55;15.73;;;7.80;;
11827;SDS011;5971;49.646;8.568;2022-08-19T04:06:17;15.57;;;8.10;;
11827;SDS011;5971;49.646;8.568;2022-08-19T04:09:20;15.02;;;8.18;;
11827;SDS011;5971;49.646;8.568;2022-08-19T04:12:21;15.63;;;8.00;;
11827;SDS011;5971;49.646;8.568;2022-08-19T04:15:22;15.95;;;8.23;;
11827;SDS011;5971;49.646;8.568;2022-08-19T04:18:24;17.55;;;8.40;;
11827;SDS011;5971;49.646;8.568;2022-08-19T04:21:26;16.60;;;8.35;;
11827;SDS011;5971;49.646;8.568;2022-08-19T04:24:28;16.73;;;8.38;;
11827;SDS011;5971;49.646;8.568;2022-08-19T04:27:29;15.95;;;7.70;;
11827;SDS011;5971;49.646;8.568;2022-08-19T04:30:37;15.82;;;8.07;;
11827;SDS011;5971;49.646;8.568;2022-08-19T04:33:38;17.27;;;9.20;;
11827;SDS011;5971;49.646;8.568;2022-08-19T04:36:40;17.05;;;8.73;;
11827;SDS011;5971;49.646;8.568;2022-08-19T04:39:42;17.25;;;8.38;;
11827;SDS011;5971;49.646;8.568;2022-08-19T04:43:02;16.05;;;7.82;;
11827;SDS011;5971;49.646;8.568;2022-08-19T04:46:05;18.00;;;8.18;;
11827;SDS011;5971;49.646;8.568;2022-08-19T04:49:07;14.95;;;7.97;;
11827;SDS011;5971;49.646;8.568;2022-08-19T04:52:13;14.77;;;7.75;;
11827;SDS011;5971;49.646;8.568;2022-08-19T04:55:15;14.05;;;7.75;;
11827;SDS011;5971;49.646;8.568;2022-08-19T04:58:16;14.98;;;8.10;;
11827;SDS011;5971;49.646;8.568;2022-08-19T05:01:20;15.30;;;7.85;;
11827;SDS011;5971;49.646;8.568;2022-08-19T05:04:22;13.95;;;7.25;;
11827;SDS011;5971;49.646;8.568;2022-08-19T05:07:23;14.93;;;8.18;;
11827;SDS011;5971;49.646;8.568;2022-08-19T05:10:24;16.20;;;8.32;;
11827;SDS011;5971;49.646;8.568;2022-08-19T05:13:26;15.82;;;8.18;;
11827;SDS011;5971;49.646;8.568;2022-08-19T05:16:27;14.60;;;7.65;;
11827;SDS011;5971;49.646;8.568;2022-08-19T05:19:29;18.08;;;8.80;;
11827;SDS011;5971;49.646;8.568;2022-08-19T05:22:49;16.60;;;8.10;;
11827;SDS011;5971;49.646;8.568;2022-08-19T05:25:50;15.45;;;8.20;;
11827;SDS011;5971;49.646;8.568;2022-08-19T05:28:52;15.45;;;8.63;;
11827;SDS011;5971;49.646;8.568;2022-08-19T05:31:55;16.83;;;8.50;;
11827;SDS011;5971;49.646;8.568;2022-08-19T05:34:56;15.77;;;8.13;;
11827;SDS011;5971;49.646;8.568;2022-08-19T05:37:58;14.20;;;8.20;;
11827;SDS011;5971;49.646;8.568;2022-08-19T05:40:59;13.77;;;7.63;;
11827;SDS011;5971;49.646;8.568;2022-08-19T05:44:01;15.05;;;7.80;;
11827;SDS011;5971;49.646;8.568;2022-08-19T05:47:04;14.40;;;8.27;;
11827;SDS011;5971;49.646;8.568;2022-08-19T05:50:06;14.88;;;7.60;;
11827;SDS011;5971;49.646;8.568;2022-08-19T05:53:08;14.98;;;7.68;;
11827;SDS011;5971;49.646;8.568;2022-08-19T05:56:11;16.10;;;8.82;;
11827;SDS011;5971;49.646;8.568;2022-08-19T05:59:13;15.60;;;8.45;;
11827;SDS011;5971;49.646;8.568;2022-08-19T06:02:15;15.23;;;7.90;;
11827;SDS011;5971;49.646;8.568;2022-08-19T06:05:17;16.05;;;9.38;;
11827;SDS011;5971;49.646;8.568;2022-08-19T06:08:18;15.00;;;7.53;;
11827;SDS011;5971;49.646;8.568;2022-08-19T06:11:41;13.95;;;7.30;;
11827;SDS011;5971;49.646;8.568;2022-08-19T06:14:42;16.85;;;7.72;;
11827;SDS011;5971;49.646;8.568;2022-08-19T06:17:43;12.48;;;6.78;;
11827;SDS011;5971;49.646;8.568;2022-08-19T06:20:45;12.63;;;6.40;;
11827;SDS011;5971;49.646;8.568;2022-08-19T06:23:56;12.98;;;7.03;;
11827;SDS011;5971;49.646;8.568;2022-08-19T06:26:58;13.10;;;7.03;;
11827;SDS011;5971;49.646;8.568;2022-08-19T06:30:02;12.57;;;7.30;;
11827;SDS011;5971;49.646;8.568;2022-08-19T06:33:04;12.98;;;6.72;;
11827;SDS011;5971;49.646;8.568;2022-08-19T06:36:05;11.30;;;6.60;;
11827;SDS011;5971;49.646;8.568;2022-08-19T06:39:09;12.32;;;7.00;;
11827;SDS011;5971;49.646;8.568;2022-08-19T06:42:10;12.63;;;7.35;;
11827;SDS011;5971;49.646;8.568;2022-08-19T06:45:14;11.82;;;7.07;;
11827;SDS011;5971;49.646;8.568;2022-08-19T06:48:15;10.80;;;6.47;;
11827;SDS011;5971;49.646;8.568;2022-08-19T06:51:18;11.32;;;6.40;;
11827;SDS011;5971;49.646;8.568;2022-08-19T06:54:20;11.25;;;6.78;;
11827;SDS011;5971;49.646;8.568;2022-08-19T06:57:21;10.32;;;6.35;;
11827;SDS011;5971;49.646;8.568;2022-08-19T07:00:23;10.07;;;6.47;;
11827;SDS011;5971;49.646;8.568;2022-08-19T07:03:24;9.63;;;5.97;;
11827;SDS011;5971;49.646;8.568;2022-08-19T07:06:25;11.57;;;7.88;;
11827;SDS011;5971;49.646;8.568;2022-08-19T07:09:44;10.18;;;6.50;;
11827;SDS011;5971;49.646;8.568;2022-08-19T07:12:58;11.60;;;6.93;;
11827;SDS011;5971;49.646;8.568;2022-08-19T07:16:02;13.13;;;6.65;;
11827;SDS011;5971;49.646;8.568;2022-08-19T07:19:05;11.50;;;6.43;;
11827;SDS011;5971;49.646;8.568;2022-08-19T07:22:16;11.90;;;6.78;;
11827;SDS011;5971;49.646;8.568;2022-08-19T07:25:18;11.82;;;6.70;;
11827;SDS011;5971;49.646;8.568;2022-08-19T07:28:32;11.00;;;6.38;;
11827;SDS011;5971;49.646;8.568;2022-08-19T07:31:35;10.65;;;6.15;;
11827;SDS011;5971;49.646;8.568;2022-08-19T07:34:38;10.43;;;6.20;;
11827;SDS011;5971;49.646;8.568;2022-08-19T07:37:40;11.18;;;6.50;;
11827;SDS011;5971;49.646;8.568;2022-08-19T07:40:45;9.93;;;6.60;;
11827;SDS011;5971;49.646;8.568;2022-08-19T07:43:47;9.13;;;5.80;;
11827;SDS011;5971;49.646;8.568;2022-08-19T07:46:50;10.65;;;6.10;;
11827;SDS011;5971;49.646;8.568;2022-08-19T07:49:53;10.38;;;6.72;;
11827;SDS011;5971;49.646;8.568;2022-08-19T07:52:55;7.78;;;5.55;;
11827;SDS011;5971;49.646;8.568;2022-08-19T07:55:57;9.10;;;4.93;;
11827;SDS011;5971;49.646;8.568;2022-08-19T07:59:05;7.63;;;4.53;;
11827;SDS011;5971;49.646;8.568;2022-08-19T08:02:06;8.18;;;5.25;;
11827;SDS011;5971;49.646;8.568;2022-08-19T08:05:09;7.20;;;4.72;;
11827;SDS011;5971;49.646;8.568;2022-08-19T08:08:29;7.72;;;4.93;;
11827;SDS011;5971;49.646;8.568;2022-08-19T08:11:57;6.78;;;4.47;;
11827;SDS011;5971;49.646;8.568;2022-08-19T08:15:06;7.80;;;5.10;;
11827;SDS011;5971;49.646;8.568;2022-08-19T08:18:12;6.93;;;4.43;;
11827;SDS011;5971;49.646;8.568;2022-08-19T08:21:14;6.22;;;4.03;;
11827;SDS011;5971;49.646;8.568;2022-08-19T08:24:16;6.20;;;4.25;;
11827;SDS011;5971;49.646;8.568;2022-08-19T08:27:17;6.38;;;3.97;;
11827;SDS011;5971;49.646;8.568;2022-08-19T08:30:26;7.35;;;4.05;;
11827;SDS011;5971;49.646;8.568;2022-08-19T08:33:32;5.82;;;3.65;;
11827;SDS011;5971;49.646;8.568;2022-08-19T08:36:36;6.38;;;3.78;;
11827;SDS011;5971;49.646;8.568;2022-08-19T08:39:41;5.18;;;3.42;;
11827;SDS011;5971;49.646;8.568;2022-08-19T08:42:45;5.18;;;3.38;;
11827;SDS011;5971;49.646;8.568;2022-08-19T08:45:50;5.82;;;3.35;;
11827;SDS011;5971;49.646;8.568;2022-08-19T08:48:56;4.43;;;3.20;;
11827;SDS011;5971;49.646;8.568;2022-08-19T08:55:06;6.53;;;3.72;;
11827;SDS011;5971;49.646;8.568;2022-08-19T08:58:28;4.82;;;3.08;;
11827;SDS011;5971;49.646;8.568;2022-08-19T09:01:31;5.57;;;3.50;;
11827;SDS011;5971;49.646;8.568;2022-08-19T09:04:36;5.57;;;3.70;;
11827;SDS011;5971;49.646;8.568;2022-08-19T09:10:55;5.57;;;3.78;;
11827;SDS011;5971;49.646;8.568;2022-08-19T09:14:09;5.60;;;4.13;;
11827;SDS011;5971;49.646;8.568;2022-08-19T09:17:33;6.35;;;3.75;;
11827;SDS011;5971;49.646;8.568;2022-08-19T09:20:39;5.00;;;3.33;;
11827;SDS011;5971;49.646;8.568;2022-08-19T09:23:43;4.45;;;3.10;;
11827;SDS011;5971;49.646;8.568;2022-08-19T09:26:44;4.88;;;3.13;;
11827;SDS011;5971;49.646;8.568;2022-08-19T09:29:53;5.93;;;3.60;;
11827;SDS011;5971;49.646;8.568;2022-08-19T09:32:55;4.63;;;3.30;;
11827;SDS011;5971;49.646;8.568;2022-08-19T09:36:03;4.50;;;3.40;;
11827;SDS011;5971;49.646;8.568;2022-08-19T09:39:08;4.28;;;2.92;;
11827;SDS011;5971;49.646;8.568;2022-08-19T09:42:16;5.18;;;3.88;;
11827;SDS011;5971;49.646;8.568;2022-08-19T09:45:29;4.43;;;3.10;;
11827;SDS011;5971;49.646;8.568;2022-08-19T09:48:34;4.80;;;2.90;;
11827;SDS011;5971;49.646;8.568;2022-08-19T09:51:36;3.85;;;2.85;;
11827;SDS011;5971;49.646;8.568;2022-08-19T09:54:37;4.82;;;3.47;;
11827;SDS011;5971;49.646;8.568;2022-08-19T09:57:44;4.95;;;3.55;;
11827;SDS011;5971;49.646;8.568;2022-08-19T10:00:45;4.93;;;3.70;;
11827;SDS011;5971;49.646;8.568;2022-08-19T10:03:52;3.85;;;2.90;;
11827;SDS011;5971;49.646;8.568;2022-08-19T10:06:55;5.38;;;3.53;;
11827;SDS011;5971;49.646;8.568;2022-08-19T10:09:59;5.38;;;4.68;;
11827;SDS011;5971;49.646;8.568;2022-08-19T10:13:01;6.35;;;4.65;;
11827;SDS011;5971;49.646;8.568;2022-08-19T10:16:06;5.60;;;3.88;;
11827;SDS011;5971;49.646;8.568;2022-08-19T10:19:10;5.65;;;4.15;;
11827;SDS011;5971;49.646;8.568;2022-08-19T10:22:11;5.55;;;3.65;;
11827;SDS011;5971;49.646;8.568;2022-08-19T10:25:15;6.25;;;4.30;;
11827;SDS011;5971;49.646;8.568;2022-08-19T10:28:18;7.50;;;4.78;;
11827;SDS011;5971;49.646;8.568;2022-08-19T10:31:22;5.50;;;4.30;;
11827;SDS011;5971;49.646;8.568;2022-08-19T10:34:44;5.20;;;3.53;;
11827;SDS011;5971;49.646;8.568;2022-08-19T10:37:49;5.55;;;4.45;;
11827;SDS011;5971;49.646;8.568;2022-08-19T10:41:12;5.60;;;4.80;;
11827;SDS011;5971;49.646;8.568;2022-08-19T10:44:18;6.10;;;5.43;;
11827;SDS011;5971;49.646;8.568;2022-08-19T10:47:20;5.93;;;4.90;;
11827;SDS011;5971;49.646;8.568;2022-08-19T10:50:26;7.28;;;5.13;;
11827;SDS011;5971;49.646;8.568;2022-08-19T10:53:47;6.85;;;6.15;;
11827;SDS011;5971;49.646;8.568;2022-08-19T10:56:49;6.07;;;5.13;;
11827;SDS011;5971;49.646;8.568;2022-08-19T10:59:53;6.50;;;5.07;;
11827;SDS011;5971;49.646;8.568;2022-08-19T11:02:54;8.45;;;6.45;;
11827;SDS011;5971;49.646;8.568;2022-08-19T11:06:00;7.95;;;5.45;;
11827;SDS011;5971;49.646;8.568;2022-08-19T11:09:02;6.55;;;4.88;;
11827;SDS011;5971;49.646;8.568;2022-08-19T11:12:04;6.82;;;4.88;;
11827;SDS011;5971;49.646;8.568;2022-08-19T11:15:06;6.35;;;4.97;;
11827;SDS011;5971;49.646;8.568;2022-08-19T11:18:11;6.28;;;4.45;;
11827;SDS011;5971;49.646;8.568;2022-08-19T11:21:15;5.90;;;4.65;;
11827;SDS011;5971;49.646;8.568;2022-08-19T11:24:19;6.07;;;5.28;;
11827;SDS011;5971;49.646;8.568;2022-08-19T11:27:21;5.47;;;4.78;;
11827;SDS011;5971;49.646;8.568;2022-08-19T11:30:22;5.35;;;4.07;;
11827;SDS011;5971;49.646;8.568;2022-08-19T11:33:24;5.68;;;4.78;;
11827;SDS011;5971;49.646;8.568;2022-08-19T11:36:27;7.00;;;5.60;;
11827;SDS011;5971;49.646;8.568;2022-08-19T11:39:29;6.25;;;5.30;;
11827;SDS011;5971;49.646;8.568;2022-08-19T11:45:55;6.78;;;5.45;;
11827;SDS011;5971;49.646;8.568;2022-08-19T11:48:57;6.97;;;6.28;;
11827;SDS011;5971;49.646;8.568;2022-08-19T11:52:00;7.95;;;5.95;;
11827;SDS011;5971;49.646;8.568;2022-08-19T11:55:01;5.88;;;4.75;;
11827;SDS011;5971;49.646;8.568;2022-08-19T11:58:03;5.38;;;4.15;;
11827;SDS011;5971;49.646;8.568;2022-08-19T12:01:20;6.13;;;4.72;;
11827;SDS011;5971;49.646;8.568;2022-08-19T12:04:22;5.40;;;3.75;;
11827;SDS011;5971;49.646;8.568;2022-08-19T12:07:24;5.07;;;3.90;;
11827;SDS011;5971;49.646;8.568;2022-08-19T12:10:25;6.75;;;4.28;;
11827;SDS011;5971;49.646;8.568;2022-08-19T12:13:27;5.60;;;4.15;;
11827;SDS011;5971;49.646;8.568;2022-08-19T12:16:29;4.53;;;3.60;;
11827;SDS011;5971;49.646;8.568;2022-08-19T12:19:33;5.43;;;3.97;;
11827;SDS011;5971;49.646;8.568;2022-08-19T12:22:35;7.28;;;4.28;;
11827;SDS011;5971;49.646;8.568;2022-08-19T12:25:37;5.50;;;4.00;;
11827;SDS011;5971;49.646;8.568;2022-08-19T12:28:39;5.45;;;4.40;;
11827;SDS011;5971;49.646;8.568;2022-08-19T12:31:40;5.30;;;4.60;;
11827;SDS011;5971;49.646;8.568;2022-08-19T12:34:43;6.20;;;4.82;;
11827;SDS011;5971;49.646;8.568;2022-08-19T12:37:44;5.80;;;5.13;;
11827;SDS011;5971;49.646;8.568;2022-08-19T12:40:57;5.47;;;4.30;;
11827;SDS011;5971;49.646;8.568;2022-08-19T12:44:00;7.03;;;4.50;;
11827;SDS011;5971;49.646;8.568;2022-08-19T12:47:02;5.70;;;4.05;;
11827;SDS011;5971;49.646;8.568;2022-08-19T12:50:06;5.82;;;4.10;;
11827;SDS011;5971;49.646;8.568;2022-08-19T12:53:09;4.95;;;3.78;;
11827;SDS011;5971;49.646;8.568;2022-08-19T12:56:12;5.43;;;4.32;;
11827;SDS011;5971;49.646;8.568;2022-08-19T12:59:15;5.78;;;4.07;;
11827;SDS011;5971;49.646;8.568;2022-08-19T13:02:18;4.60;;;3.60;;
11827;SDS011;5971;49.646;8.568;2022-08-19T13:05:22;4.85;;;4.25;;
11827;SDS011;5971;49.646;8.568;2022-08-19T13:08:24;4.70;;;3.63;;
11827;SDS011;5971;49.646;8.568;2022-08-19T13:11:25;4.40;;;3.47;;
11827;SDS011;5971;49.646;8.568;2022-08-19T13:14:26;4.70;;;3.53;;
11827;SDS011;5971;49.646;8.568;2022-08-19T13:17:28;4.25;;;3.42;;
11827;SDS011;5971;49.646;8.568;2022-08-19T13:20:29;4.47;;;3.85;;
11827;SDS011;5971;49.646;8.568;2022-08-19T13:23:31;4.15;;;3.40;;
11827;SDS011;5971;49.646;8.568;2022-08-19T13:26:32;4.38;;;3.90;;
11827;SDS011;5971;49.646;8.568;2022-08-19T13:29:34;5.10;;;3.63;;
11827;SDS011;5971;49.646;8.568;2022-08-19T13:32:54;4.07;;;3.38;;
11827;SDS011;5971;49.646;8.568;2022-08-19T13:36:16;5.22;;;3.60;;
11827;SDS011;5971;49.646;8.568;2022-08-19T13:39:17;4.80;;;3.72;;
11827;SDS011;5971;49.646;8.568;2022-08-19T13:42:19;4.65;;;3.72;;
11827;SDS011;5971;49.646;8.568;2022-08-19T13:45:21;5.07;;;4.18;;
11827;SDS011;5971;49.646;8.568;2022-08-19T13:51:24;4.60;;;4.00;;
11827;SDS011;5971;49.646;8.568;2022-08-19T13:54:26;4.78;;;3.92;;
11827;SDS011;5971;49.646;8.568;2022-08-19T13:57:28;4.03;;;3.20;;
11827;SDS011;5971;49.646;8.568;2022-08-19T14:00:30;5.05;;;3.60;;
11827;SDS011;5971;49.646;8.568;2022-08-19T14:03:32;5.18;;;3.35;;
11827;SDS011;5971;49.646;8.568;2022-08-19T14:06:34;5.13;;;3.50;;
11827;SDS011;5971;49.646;8.568;2022-08-19T14:09:35;4.90;;;3.63;;
11827;SDS011;5971;49.646;8.568;2022-08-19T14:12:36;4.07;;;3.53;;
11827;SDS011;5971;49.646;8.568;2022-08-19T14:15:38;5.50;;;3.40;;
11827;SDS011;5971;49.646;8.568;2022-08-19T14:18:39;4.68;;;3.67;;
11827;SDS011;5971;49.646;8.568;2022-08-19T14:21:41;3.92;;;2.97;;
11827;SDS011;5971;49.646;8.568;2022-08-19T14:24:42;4.55;;;3.40;;
11827;SDS011;5971;49.646;8.568;2022-08-19T14:27:48;5.97;;;4.38;;
11827;SDS011;5971;49.646;8.568;2022-08-19T14:30:49;5.50;;;4.47;;
11827;SDS011;5971;49.646;8.568;2022-08-19T14:33:55;4.00;;;3.30;;
11827;SDS011;5971;49.646;8.568;2022-08-19T14:36:57;4.63;;;3.50;;
11827;SDS011;5971;49.646;8.568;2022-08-19T14:40:02;6.25;;;4.10;;
11827;SDS011;5971;49.646;8.568;2022-08-19T14:46:06;5.13;;;4.55;;
11827;SDS011;5971;49.646;8.568;2022-08-19T14:49:10;3.85;;;3.35;;
11827;SDS011;5971;49.646;8.568;2022-08-19T14:52:12;4.28;;;3.17;;
11827;SDS011;5971;49.646;8.568;2022-08-19T14:55:14;4.13;;;2.67;;
11827;SDS011;5971;49.646;8.568;2022-08-19T14:58:16;4.30;;;3.28;;
11827;SDS011;5971;49.646;8.568;2022-08-19T15:01:30;4.43;;;3.45;;
11827;SDS011;5971;49.646;8.568;2022-08-19T15:04:32;3.90;;;3.00;;
11827;SDS011;5971;49.646;8.568;2022-08-19T15:07:34;5.90;;;3.20;;
11827;SDS011;5971;49.646;8.568;2022-08-19T15:10:35;4.13;;;3.38;;
11827;SDS011;5971;49.646;8.568;2022-08-19T15:13:37;4.10;;;3.60;;
11827;SDS011;5971;49.646;8.568;2022-08-19T15:16:38;4.22;;;2.92;;
11827;SDS011;5971;49.646;8.568;2022-08-19T15:19:42;4.13;;;2.75;;
11827;SDS011;5971;49.646;8.568;2022-08-19T15:22:45;3.88;;;2.95;;
11827;SDS011;5971;49.646;8.568;2022-08-19T15:25:46;3.92;;;2.65;;
11827;SDS011;5971;49.646;8.568;2022-08-19T15:28:48;3.90;;;2.85;;
11827;SDS011;5971;49.646;8.568;2022-08-19T15:31:50;3.60;;;2.70;;
11827;SDS011;5971;49.646;8.568;2022-08-19T15:34:54;4.60;;;3.10;;
11827;SDS011;5971;49.646;8.568;2022-08-19T15:37:56;3.08;;;2.20;;
11827;SDS011;5971;49.646;8.568;2022-08-19T15:40:57;3.33;;;2.42;;
11827;SDS011;5971;49.646;8.568;2022-08-19T15:44:19;3.78;;;2.63;;
11827;SDS011;5971;49.646;8.568;2022-08-19T15:47:22;3.83;;;3.38;;
11827;SDS011;5971;49.646;8.568;2022-08-19T15:50:23;3.92;;;2.72;;
11827;SDS011;5971;49.646;8.568;2022-08-19T15:53:25;3.50;;;2.60;;
11827;SDS011;5971;49.646;8.568;2022-08-19T15:56:27;3.75;;;2.95;;
11827;SDS011;5971;49.646;8.568;2022-08-19T15:59:58;4.22;;;2.90;;
11827;SDS011;5971;49.646;8.568;2022-08-19T16:03:18;4.10;;;3.00;;
11827;SDS011;5971;49.646;8.568;2022-08-19T16:06:45;4.30;;;3.10;;
11827;SDS011;5971;49.646;8.568;2022-08-19T16:09:47;3.88;;;3.00;;
11827;SDS011;5971;49.646;8.568;2022-08-19T16:12:48;4.00;;;2.85;;
11827;SDS011;5971;49.646;8.568;2022-08-19T16:15:49;4.38;;;3.03;;
11827;SDS011;5971;49.646;8.568;2022-08-19T16:18:51;4.32;;;2.92;;
11827;SDS011;5971;49.646;8.568;2022-08-19T16:21:54;4.07;;;3.10;;
11827;SDS011;5971;49.646;8.568;2022-08-19T16:24:56;4.00;;;3.00;;
11827;SDS011;5971;49.646;8.568;2022-08-19T16:27:57;4.15;;;3.25;;
11827;SDS011;5971;49.646;8.568;2022-08-19T16:31:09;5.15;;;3.40;;
11827;SDS011;5971;49.646;8.568;2022-08-19T16:34:11;4.63;;;3.35;;
11827;SDS011;5971;49.646;8.568;2022-08-19T16:37:13;4.25;;;3.20;;
11827;SDS011;5971;49.646;8.568;2022-08-19T16:40:14;4.57;;;3.35;;
11827;SDS011;5971;49.646;8.568;2022-08-19T16:43:16;4.32;;;3.25;;
11827;SDS011;5971;49.646;8.568;2022-08-19T16:46:21;5.30;;;3.35;;
11827;SDS011;5971;49.646;8.568;2022-08-19T16:49:23;5.03;;;3.22;;
11827;SDS011;5971;49.646;8.568;2022-08-19T16:55:48;4.63;;;3.35;;
11827;SDS011;5971;49.646;8.568;2022-08-19T16:58:57;4.60;;;3.25;;
11827;SDS011;5971;49.646;8.568;2022-08-19T17:02:00;5.45;;;3.17;;
11827;SDS011;5971;49.646;8.568;2022-08-19T17:05:01;5.38;;;3.22;;
11827;SDS011;5971;49.646;8.568;2022-08-19T17:08:03;5.00;;;4.45;;
11827;SDS011;5971;49.646;8.568;2022-08-19T17:11:04;5.43;;;3.63;;
11827;SDS011;5971;49.646;8.568;2022-08-19T17:14:19;4.85;;;3.58;;
11827;SDS011;5971;49.646;8.568;2022-08-19T17:17:21;5.40;;;3.47;;
11827;SDS011;5971;49.646;8.568;2022-08-19T17:20:29;4.50;;;3.20;;
11827;SDS011;5971;49.646;8.568;2022-08-19T17:23:31;5.13;;;3.35;;
11827;SDS011;5971;49.646;8.568;2022-08-19T17:26:43;4.95;;;3.63;;
11827;SDS011;5971;49.646;8.568;2022-08-19T17:29:45;4.53;;;3.38;;
11827;SDS011;5971;49.646;8.568;2022-08-19T17:32:47;4.70;;;3.30;;
11827;SDS011;5971;49.646;8.568;2022-08-19T17:35:49;5.85;;;4.43;;
11827;SDS011;5971;49.646;8.568;2022-08-19T17:38:51;4.72;;;3.22;;
11827;SDS011;5971;49.646;8.568;2022-08-19T17:41:52;4.40;;;3.05;;
11827;SDS011;5971;49.646;8.568;2022-08-19T17:44:55;5.28;;;3.70;;
11827;SDS011;5971;49.646;8.568;2022-08-19T17:47:59;5.43;;;3.58;;
11827;SDS011;5971;49.646;8.568;2022-08-19T17:51:11;5.18;;;3.10;;
11827;SDS011;5971;49.646;8.568;2022-08-19T17:54:13;5.72;;;3.63;;
11827;SDS011;5971;49.646;8.568;2022-08-19T17:57:15;6.53;;;3.85;;
11827;SDS011;5971;49.646;8.568;2022-08-19T18:00:17;5.40;;;3.88;;
11827;SDS011;5971;49.646;8.568;2022-08-19T18:03:18;5.30;;;3.75;;
11827;SDS011;5971;49.646;8.568;2022-08-19T18:06:19;6.25;;;3.85;;
11827;SDS011;5971;49.646;8.568;2022-08-19T18:09:22;5.80;;;4.05;;
11827;SDS011;5971;49.646;8.568;2022-08-19T18:12:24;5.85;;;4.55;;
11827;SDS011;5971;49.646;8.568;2022-08-19T18:15:27;5.63;;;3.95;;
11827;SDS011;5971;49.646;8.568;2022-08-19T18:18:28;6.88;;;3.58;;
11827;SDS011;5971;49.646;8.568;2022-08-19T18:21:30;5.68;;;3.72;;
11827;SDS011;5971;49.646;8.568;2022-08-19T18:24:31;6.07;;;3.97;;
11827;SDS011;5971;49.646;8.568;2022-08-19T18:27:33;6.43;;;4.10;;
11827;SDS011;5971;49.646;8.568;2022-08-19T18:30:34;5.40;;;3.72;;
11827;SDS011;5971;49.646;8.568;2022-08-19T18:33:35;6.10;;;3.85;;
11827;SDS011;5971;49.646;8.568;2022-08-19T18:36:44;6.13;;;4.20;;
11827;SDS011;5971;49.646;8.568;2022-08-19T18:39:54;5.80;;;3.95;;
11827;SDS011;5971;49.646;8.568;2022-08-19T18:43:14;5.40;;;3.40;;
11827;SDS011;5971;49.646;8.568;2022-08-19T18:46:34;5.60;;;3.78;;
11827;SDS011;5971;49.646;8.568;2022-08-19T18:49:57;5.38;;;4.25;;
11827;SDS011;5971;49.646;8.568;2022-08-19T18:53:03;6.70;;;3.80;;
11827;SDS011;5971;49.646;8.568;2022-08-19T18:56:06;5.80;;;3.90;;
11827;SDS011;5971;49.646;8.568;2022-08-19T18:59:08;6.60;;;3.83;;
11827;SDS011;5971;49.646;8.568;2022-08-19T19:02:09;5.15;;;3.70;;